Time;durP1;ratioP1;P1;durP2;ratioP2;P2;SDS_P1;SDS_P2;PMS_P1;PMS_P2;Temp;Humidity;BMP_temperature;BMP_pressure;BME280_temperature;BME280_humidity;BME280_pressure;Samples;Min_cycle;Max_cycle;Signal;HPM_P1;HPM_P2
2022/11/06 00:01:04;;;;;;;91.27;37.57;;;6.20;99.90;;;;;;5073471;28;20205;-66
2022/11/06 00:03:31;;;;;;;93.83;39.33;;;6.20;99.90;;;;;;5073913;28;20213;-66
2022/11/06 00:08:41;;;;;;;91.80;37.70;;;6.20;99.90;;;;;;5073422;28;20258;-68
2022/11/06 00:11:11;;;;;;;101.33;38.93;;;6.20;99.90;;;;;;5073919;28;20215;-67
2022/11/06 00:13:38;;;;;;;79.77;35.63;;;6.20;99.90;;;;;;5073601;28;20223;-66
2022/11/06 00:16:07;;;;;;;82.07;35.67;;;6.20;99.90;;;;;;5073827;28;20200;-67
2022/11/06 00:18:34;;;;;;;91.83;37.20;;;6.20;99.90;;;;;;5072940;28;20246;-67
2022/11/06 00:21:07;;;;;;;96.13;38.67;;;6.20;99.90;;;;;;5073018;28;20558;-68
2022/11/06 00:23:34;;;;;;;95.80;38.03;;;6.20;99.90;;;;;;5073391;28;20656;-67
2022/11/06 00:26:04;;;;;;;95.50;39.83;;;6.20;99.90;;;;;;5073243;28;20213;-67
2022/11/06 00:28:33;;;;;;;93.07;37.73;;;6.30;99.90;;;;;;5073383;28;20208;-67
2022/11/06 00:31:02;;;;;;;95.60;38.37;;;6.20;99.90;;;;;;5073325;28;20207;-66
2022/11/06 00:33:29;;;;;;;92.87;37.20;;;6.30;99.90;;;;;;5072666;28;20204;-68
2022/11/06 00:35:55;;;;;;;83.07;36.63;;;6.30;99.90;;;;;;5073448;28;20209;-67
2022/11/06 00:38:22;;;;;;;90.50;38.50;;;6.30;99.90;;;;;;5073229;28;20211;-67
2022/11/06 00:40:49;;;;;;;84.00;37.33;;;6.30;99.90;;;;;;5073484;28;20691;-67
2022/11/06 00:43:16;;;;;;;95.50;38.43;;;6.30;99.90;;;;;;5066948;28;20328;-68
2022/11/06 00:45:44;;;;;;;85.07;37.60;;;6.40;99.90;;;;;;5070483;28;20208;-66
2022/11/06 00:48:11;;;;;;;94.20;38.43;;;6.40;99.90;;;;;;5071693;28;20205;-67
2022/11/06 00:50:37;;;;;;;89.37;37.50;;;6.40;99.90;;;;;;5072905;28;20656;-66
2022/11/06 00:53:04;;;;;;;80.40;36.20;;;6.40;99.90;;;;;;5072056;28;20205;-66
2022/11/06 00:55:31;;;;;;;85.57;36.97;;;6.40;99.90;;;;;;5071205;28;20216;-67
2022/11/06 00:57:58;;;;;;;80.27;36.17;;;6.40;99.90;;;;;;5053280;28;20205;-66
2022/11/06 01:00:25;;;;;;;89.07;38.40;;;6.40;99.90;;;;;;5052636;28;20201;-65
2022/11/06 01:02:55;;;;;;;84.33;38.83;;;6.50;99.90;;;;;;5053207;28;20208;-67
2022/11/06 01:05:22;;;;;;;81.40;37.73;;;6.40;99.90;;;;;;5052556;28;20201;-67
2022/11/06 01:07:49;;;;;;;82.90;37.33;;;6.50;99.90;;;;;;5071749;28;20211;-66
2022/11/06 01:10:16;;;;;;;75.00;35.63;;;6.50;99.90;;;;;;5072729;28;20204;-67
2022/11/06 01:12:42;;;;;;;87.50;39.50;;;6.60;99.90;;;;;;5071533;28;20210;-67
2022/11/06 01:15:10;;;;;;;83.57;37.77;;;6.60;99.90;;;;;;5071461;28;20209;-67
2022/11/06 01:17:36;;;;;;;85.20;37.43;;;6.60;99.90;;;;;;5071961;28;20558;-66
2022/11/06 01:20:06;;;;;;;82.17;36.57;;;6.60;99.90;;;;;;5072821;28;20204;-66
2022/11/06 01:22:32;;;;;;;81.93;36.80;;;6.60;99.90;;;;;;5072114;28;20208;-67
2022/11/06 01:24:59;;;;;;;78.90;36.80;;;6.70;99.90;;;;;;5071532;28;20232;-67
2022/11/06 01:27:26;;;;;;;84.73;37.13;;;6.60;99.90;;;;;;5072529;28;20204;-67
2022/11/06 01:29:53;;;;;;;84.23;36.13;;;6.70;99.90;;;;;;5072343;28;20208;-67
2022/11/06 01:32:19;;;;;;;89.03;36.77;;;6.70;99.90;;;;;;5072093;28;20200;-67
2022/11/06 01:34:48;;;;;;;85.50;37.37;;;6.60;99.90;;;;;;5070609;28;20203;-67
2022/11/06 01:37:16;;;;;;;80.20;36.40;;;6.60;99.90;;;;;;5072222;28;20211;-67
2022/11/06 01:39:43;;;;;;;86.73;36.90;;;6.60;99.90;;;;;;5072270;28;20205;-67
2022/11/06 01:42:11;;;;;;;80.53;36.53;;;6.70;99.90;;;;;;5071950;28;20237;-66
2022/11/06 01:45:05;;;;;;;88.97;39.37;;;6.60;99.90;;;;;;5073627;28;20298;-67
2022/11/06 01:47:32;;;;;;;84.67;38.03;;;6.70;99.90;;;;;;5092304;28;20545;-67
2022/11/06 01:50:02;;;;;;;81.63;37.23;;;6.70;99.90;;;;;;5092735;28;20208;-67
2022/11/06 01:52:31;;;;;;;80.40;36.33;;;6.70;99.90;;;;;;5092570;28;20640;-65
2022/11/06 01:55:06;;;;;;;83.47;37.67;;;6.70;99.90;;;;;;5074365;28;20207;-66
2022/11/06 01:57:33;;;;;;;83.20;36.47;;;6.70;99.90;;;;;;5072443;28;20230;-68
2022/11/06 02:00:00;;;;;;;76.73;36.33;;;6.70;99.90;;;;;;5072322;28;20211;-68
2022/11/06 02:02:27;;;;;;;82.10;36.70;;;6.60;99.90;;;;;;5072129;28;20198;-67
2022/11/06 02:04:53;;;;;;;72.90;35.77;;;6.70;99.90;;;;;;5071376;28;20229;-66
2022/11/06 02:07:21;;;;;;;76.77;37.07;;;6.70;99.90;;;;;;5071988;28;20200;-67
2022/11/06 02:09:49;;;;;;;81.57;36.67;;;6.70;99.90;;;;;;5071821;28;20204;-67
2022/11/06 02:12:23;;;;;;;78.43;36.10;;;6.70;99.90;;;;;;5069735;28;20212;-67
2022/11/06 02:15:00;;;;;;;75.17;36.00;;;6.60;99.90;;;;;;5071956;28;20200;-67
2022/11/06 02:17:39;;;;;;;77.07;35.33;;;6.70;99.90;;;;;;5071282;28;20215;-66
2022/11/06 02:20:11;;;;;;;72.07;33.37;;;6.70;99.90;;;;;;5071883;28;20230;-66
2022/11/06 02:23:00;;;;;;;69.73;34.27;;;6.70;99.90;;;;;;5072079;28;20761;-67
2022/11/06 02:25:41;;;;;;;76.37;35.07;;;6.70;99.90;;;;;;5070870;28;20217;-66
2022/11/06 02:28:17;;;;;;;70.70;35.33;;;6.70;99.90;;;;;;5071098;28;20193;-67
2022/11/06 02:30:47;;;;;;;66.07;32.97;;;6.70;99.90;;;;;;5074404;28;20188;-65
2022/11/06 02:33:17;;;;;;;66.63;33.77;;;6.70;99.90;;;;;;5074941;28;20202;-67
2022/11/06 02:35:47;;;;;;;70.23;34.53;;;6.70;99.90;;;;;;5073901;28;20637;-66
2022/11/06 02:38:18;;;;;;;67.83;34.17;;;6.70;99.90;;;;;;5075537;28;20276;-66
2022/11/06 02:40:49;;;;;;;63.47;32.73;;;6.70;99.90;;;;;;5075770;28;20201;-67
2022/11/06 02:43:19;;;;;;;73.67;34.67;;;6.80;99.90;;;;;;5075038;28;20237;-67
2022/11/06 02:45:50;;;;;;;70.70;34.03;;;6.80;99.90;;;;;;5074597;28;20205;-68
2022/11/06 02:48:22;;;;;;;69.30;34.67;;;6.80;99.90;;;;;;5075304;28;20215;-66
2022/11/06 02:50:52;;;;;;;70.50;34.00;;;6.70;99.90;;;;;;5075428;28;20195;-67
2022/11/06 02:53:23;;;;;;;73.67;33.37;;;6.70;99.90;;;;;;5074321;28;20587;-67
2022/11/06 02:55:52;;;;;;;70.03;34.57;;;6.70;99.90;;;;;;5074498;28;20216;-68
2022/11/06 02:58:24;;;;;;;71.63;36.00;;;6.70;99.90;;;;;;5075110;28;20208;-66
2022/11/06 03:00:55;;;;;;;71.37;34.40;;;6.60;99.90;;;;;;5074910;28;20189;-66
2022/11/06 03:03:26;;;;;;;75.37;35.17;;;6.60;99.90;;;;;;5075306;28;20189;-67
2022/11/06 03:05:56;;;;;;;76.87;35.43;;;6.60;99.90;;;;;;5074022;28;20200;-67
2022/11/06 03:08:28;;;;;;;67.20;34.27;;;6.60;99.90;;;;;;5075322;28;20285;-67
2022/11/06 03:11:02;;;;;;;72.23;34.50;;;6.60;99.90;;;;;;5075034;28;20204;-66
2022/11/06 03:13:39;;;;;;;70.67;33.57;;;6.60;99.90;;;;;;5075022;28;20199;-67
2022/11/06 03:16:16;;;;;;;74.87;35.07;;;6.60;99.90;;;;;;5073824;28;20201;-67
2022/11/06 03:18:50;;;;;;;69.43;33.63;;;6.60;99.90;;;;;;5074800;28;20188;-67
2022/11/06 03:21:23;;;;;;;72.30;35.47;;;6.60;99.90;;;;;;5074740;28;20547;-67
2022/11/06 03:23:54;;;;;;;76.67;35.97;;;6.60;99.90;;;;;;5072735;28;20243;-68
2022/11/06 03:26:26;;;;;;;74.77;35.20;;;6.60;99.90;;;;;;5074759;28;20196;-67
2022/11/06 03:29:01;;;;;;;76.00;35.90;;;6.60;99.90;;;;;;5074382;28;20193;-68
2022/11/06 03:31:36;;;;;;;75.03;36.07;;;6.60;99.90;;;;;;5074678;28;20260;-66
2022/11/06 03:34:07;;;;;;;75.20;34.57;;;6.60;99.90;;;;;;5071819;28;20339;-67
2022/11/06 03:36:38;;;;;;;79.57;36.13;;;6.50;99.90;;;;;;5074822;28;20210;-66
2022/11/06 03:39:08;;;;;;;88.50;37.67;;;6.50;99.90;;;;;;5074645;28;20597;-66
2022/11/06 03:41:41;;;;;;;81.63;37.30;;;6.50;99.90;;;;;;5074125;28;20204;-66
2022/11/06 03:44:13;;;;;;;80.23;35.77;;;6.50;99.90;;;;;;5072183;28;20232;-67
2022/11/06 03:46:47;;;;;;;91.07;38.50;;;6.40;99.90;;;;;;5074334;28;20189;-66
2022/11/06 03:49:18;;;;;;;84.83;37.40;;;6.40;99.90;;;;;;5074099;28;20181;-66
2022/11/06 03:51:49;;;;;;;79.73;37.40;;;6.50;99.90;;;;;;5074307;28;20193;-66
2022/11/06 03:54:20;;;;;;;80.07;36.13;;;6.50;99.90;;;;;;5072944;28;20201;-67
2022/11/06 03:56:51;;;;;;;90.60;38.77;;;6.50;99.90;;;;;;5074113;28;20205;-66
2022/11/06 03:59:22;;;;;;;86.30;37.53;;;6.50;99.90;;;;;;5073644;28;20547;-67
2022/11/06 04:01:50;;;;;;;80.20;35.90;;;6.60;99.90;;;;;;5072025;28;20208;-67
2022/11/06 04:04:21;;;;;;;85.93;38.60;;;6.60;99.90;;;;;;5074021;28;20266;-68
2022/11/06 04:06:53;;;;;;;88.07;39.00;;;6.60;99.90;;;;;;5074003;28;20189;-66
2022/11/06 04:14:59;;;;;;;90.47;38.80;;;6.60;99.90;;;;;;5072876;28;20226;-66
2022/11/06 04:17:28;;;;;;;90.90;37.73;;;6.60;99.90;;;;;;5072935;28;20192;-66
2022/11/06 04:19:59;;;;;;;92.37;39.97;;;6.60;99.90;;;;;;5066369;28;20538;-67
2022/11/06 04:22:37;;;;;;;91.20;37.80;;;6.60;99.90;;;;;;5053417;28;20233;-67
2022/11/06 04:28:12;;;;;;;94.87;39.70;;;6.60;99.90;;;;;;5052860;28;20259;-66
2022/11/06 04:30:48;;;;;;;98.40;40.17;;;6.60;99.90;;;;;;5064674;28;20209;-66
2022/11/06 04:33:22;;;;;;;89.13;38.50;;;6.50;99.90;;;;;;5073583;28;20632;-67
2022/11/06 04:35:59;;;;;;;91.97;39.17;;;6.50;99.90;;;;;;5072950;28;20552;-67
2022/11/06 04:38:38;;;;;;;94.10;38.80;;;6.50;99.90;;;;;;5073283;28;20385;-66
2022/11/06 04:41:15;;;;;;;94.77;39.60;;;6.60;99.90;;;;;;5071687;28;20204;-67
2022/11/06 04:43:46;;;;;;;93.17;39.80;;;6.60;99.90;;;;;;5072672;28;20321;-67
2022/11/06 04:46:21;;;;;;;88.73;37.13;;;6.60;99.90;;;;;;5072874;28;20189;-66
2022/11/06 04:48:49;;;;;;;91.27;39.07;;;6.60;99.90;;;;;;5072336;28;20219;-67
2022/11/06 04:51:19;;;;;;;96.23;38.80;;;6.60;99.90;;;;;;5070617;28;20216;-67
2022/11/06 04:53:48;;;;;;;90.83;37.23;;;6.60;99.90;;;;;;5066790;28;20584;-67
2022/11/06 04:56:23;;;;;;;95.50;38.17;;;6.60;99.90;;;;;;5072830;28;20204;-66
2022/11/06 04:58:50;;;;;;;91.40;38.07;;;6.60;99.90;;;;;;5072412;28;20195;-66
2022/11/06 05:01:18;;;;;;;82.60;36.27;;;6.70;99.90;;;;;;5070464;28;20204;-66
2022/11/06 05:03:45;;;;;;;83.17;36.43;;;6.60;99.90;;;;;;5072515;28;20292;-67
2022/11/06 05:06:12;;;;;;;88.30;35.07;;;6.70;99.90;;;;;;5072499;28;20224;-67
2022/11/06 05:08:39;;;;;;;83.03;35.77;;;6.70;99.90;;;;;;5070558;28;20656;-67
2022/11/06 05:11:06;;;;;;;89.07;35.77;;;6.70;99.90;;;;;;5072516;28;20295;-66
2022/11/06 05:13:33;;;;;;;85.37;35.40;;;6.70;99.90;;;;;;5070561;28;20676;-67
2022/11/06 05:16:01;;;;;;;89.17;35.40;;;6.70;99.90;;;;;;5072156;28;20200;-67
2022/11/06 05:18:29;;;;;;;87.93;37.53;;;6.70;99.90;;;;;;5073105;28;20227;-67
2022/11/06 05:23:40;;;;;;;84.03;35.97;;;6.70;99.90;;;;;;5071339;28;20256;-67
2022/11/06 05:26:07;;;;;;;83.27;36.03;;;6.70;99.90;;;;;;5072420;28;20230;-66
2022/11/06 05:28:34;;;;;;;79.53;35.23;;;6.70;99.90;;;;;;5071051;28;20204;-66
2022/11/06 05:31:01;;;;;;;82.83;34.03;;;6.70;99.90;;;;;;5071618;28;20200;-66
2022/11/06 05:33:29;;;;;;;84.40;35.93;;;6.70;99.90;;;;;;5072194;28;20201;-67
2022/11/06 05:35:56;;;;;;;82.67;34.90;;;6.70;99.90;;;;;;5072185;28;20208;-66
2022/11/06 05:38:23;;;;;;;82.20;34.10;;;6.70;99.90;;;;;;5072070;28;20217;-67
2022/11/06 05:40:50;;;;;;;83.27;34.77;;;6.70;99.90;;;;;;5069996;28;20289;-67
2022/11/06 05:43:17;;;;;;;80.03;34.37;;;6.70;99.90;;;;;;5071495;28;20244;-66
2022/11/06 05:45:43;;;;;;;82.63;35.43;;;6.80;99.90;;;;;;5071771;28;20235;-68
2022/11/06 05:48:10;;;;;;;83.87;35.10;;;6.80;99.90;;;;;;5071083;28;20220;-67
2022/11/06 05:50:38;;;;;;;81.73;34.93;;;6.80;99.90;;;;;;5071759;28;20294;-69
2022/11/06 05:53:05;;;;;;;80.37;33.53;;;6.80;99.90;;;;;;5071223;28;20825;-67
2022/11/06 05:55:32;;;;;;;83.70;34.63;;;6.80;99.90;;;;;;5072021;28;20200;-67
2022/11/06 05:57:59;;;;;;;86.67;33.50;;;6.80;99.90;;;;;;5072316;28;20201;-67
2022/11/06 06:00:25;;;;;;;81.03;33.40;;;6.80;99.90;;;;;;5072006;28;20212;-68
2022/11/06 06:02:52;;;;;;;78.77;32.53;;;6.80;99.90;;;;;;5069366;28;20208;-67
2022/11/06 06:05:19;;;;;;;71.00;31.23;;;6.80;99.90;;;;;;5074820;28;20692;-67
2022/11/06 06:07:47;;;;;;;80.20;32.07;;;6.80;99.90;;;;;;5073951;28;20543;-67
2022/11/06 06:10:14;;;;;;;73.87;32.30;;;6.90;99.90;;;;;;5076195;28;20207;-66
2022/11/06 06:12:41;;;;;;;82.37;33.13;;;6.80;99.90;;;;;;5073464;28;20217;-68
2022/11/06 06:15:08;;;;;;;70.67;31.80;;;6.80;99.90;;;;;;5074914;28;20200;-67
2022/11/06 06:17:35;;;;;;;80.37;33.20;;;6.80;99.90;;;;;;5075522;28;20567;-67
2022/11/06 06:20:02;;;;;;;75.10;31.70;;;6.80;99.90;;;;;;5073858;28;20212;-67
2022/11/06 06:22:29;;;;;;;72.27;32.87;;;6.80;99.90;;;;;;5068789;28;20284;-67
2022/11/06 06:24:57;;;;;;;78.43;32.60;;;6.80;99.90;;;;;;5064184;28;20243;-68
2022/11/06 06:27:26;;;;;;;75.77;32.77;;;6.80;99.90;;;;;;5065367;28;20197;-66
2022/11/06 06:29:53;;;;;;;74.93;33.23;;;6.80;99.90;;;;;;5067756;28;20696;-67
2022/11/06 06:32:20;;;;;;;70.33;30.70;;;6.90;99.90;;;;;;5065898;28;20193;-70
2022/11/06 06:34:47;;;;;;;74.33;31.67;;;6.90;99.90;;;;;;5067349;28;20197;-67
2022/11/06 06:37:13;;;;;;;76.13;32.07;;;6.90;99.90;;;;;;5063791;28;20192;-67
2022/11/06 06:39:40;;;;;;;75.67;31.00;;;6.90;99.90;;;;;;5063774;28;20256;-68
2022/11/06 06:42:08;;;;;;;82.50;33.20;;;6.90;99.90;;;;;;5064276;28;20649;-67
2022/11/06 06:44:35;;;;;;;77.83;33.43;;;6.90;99.90;;;;;;5064920;28;20235;-67
2022/11/06 06:47:02;;;;;;;74.63;32.83;;;6.90;99.90;;;;;;5057830;28;20201;-67
2022/11/06 06:49:29;;;;;;;73.33;32.40;;;6.90;99.90;;;;;;5054763;28;20201;-67
2022/11/06 06:51:55;;;;;;;78.53;30.73;;;6.90;99.90;;;;;;5059720;28;20201;-67
2022/11/06 06:54:22;;;;;;;80.10;33.50;;;6.90;99.90;;;;;;5075070;28;20573;-67
2022/11/06 06:56:49;;;;;;;76.80;32.00;;;7.00;99.90;;;;;;5074160;28;20208;-70
2022/11/06 06:59:17;;;;;;;72.37;31.27;;;7.00;99.90;;;;;;5074572;28;20211;-68
2022/11/06 07:01:44;;;;;;;74.90;32.07;;;7.00;99.90;;;;;;5074650;28;20208;-68
2022/11/06 07:04:11;;;;;;;79.07;31.77;;;7.00;99.90;;;;;;5073314;28;20225;-69
2022/11/06 07:06:38;;;;;;;66.50;29.83;;;7.00;99.90;;;;;;5072920;28;20235;-68
2022/11/06 07:09:04;;;;;;;76.00;30.93;;;7.10;99.90;;;;;;5064495;28;20194;-69
2022/11/06 07:11:31;;;;;;;72.17;30.03;;;7.10;99.90;;;;;;5062565;28;20816;-67
2022/11/06 07:13:58;;;;;;;68.50;30.27;;;7.10;99.90;;;;;;5064318;28;20209;-68
2022/11/06 07:16:26;;;;;;;79.27;31.57;;;7.10;99.90;;;;;;5070697;28;20189;-68
2022/11/06 07:18:53;;;;;;;78.13;30.20;;;7.10;99.90;;;;;;5064044;28;20201;-69
2022/11/06 07:21:20;;;;;;;77.33;29.83;;;7.10;99.90;;;;;;5061870;28;20201;-67
2022/11/06 07:23:47;;;;;;;75.83;29.63;;;7.10;99.90;;;;;;5068136;28;20209;-72
2022/11/06 07:26:13;;;;;;;75.63;32.37;;;7.20;99.90;;;;;;5054610;28;20647;-70
2022/11/06 07:28:40;;;;;;;74.77;31.00;;;7.10;99.90;;;;;;5068255;28;20683;-67
2022/11/06 07:31:09;;;;;;;74.57;31.10;;;7.20;99.90;;;;;;5074351;28;20567;-71
2022/11/06 07:33:37;;;;;;;75.57;31.33;;;7.20;99.90;;;;;;5072192;28;20220;-69
2022/11/06 07:36:05;;;;;;;63.70;28.47;;;7.20;99.90;;;;;;5070641;28;20197;-69
2022/11/06 07:38:34;;;;;;;66.80;28.47;;;7.20;99.90;;;;;;5073382;28;20218;-68
2022/11/06 07:41:03;;;;;;;70.50;30.97;;;7.30;99.90;;;;;;5074156;28;20204;-68
2022/11/06 07:43:30;;;;;;;68.83;28.67;;;7.30;99.90;;;;;;5073520;28;20243;-68
2022/11/06 07:45:59;;;;;;;71.00;30.17;;;7.40;99.90;;;;;;5072252;28;20220;-69
2022/11/06 07:48:26;;;;;;;64.10;29.77;;;7.40;99.90;;;;;;5073030;28;20606;-69
2022/11/06 07:50:54;;;;;;;65.07;29.77;;;7.40;99.90;;;;;;5074012;28;20204;-69
2022/11/06 07:53:20;;;;;;;66.30;29.20;;;7.50;99.90;;;;;;5073862;28;20204;-68
2022/11/06 07:55:50;;;;;;;72.53;30.40;;;7.50;99.90;;;;;;5071638;28;20207;-68
2022/11/06 07:58:17;;;;;;;65.70;29.60;;;7.50;99.90;;;;;;5073545;28;20559;-70
2022/11/06 08:00:47;;;;;;;61.43;28.27;;;7.60;99.90;;;;;;5073502;28;20209;-68
2022/11/06 08:03:14;;;;;;;67.47;30.57;;;7.60;99.90;;;;;;5071918;28;20212;-70
2022/11/06 08:05:41;;;;;;;73.57;32.00;;;7.60;99.90;;;;;;5073551;28;20220;-69
2022/11/06 08:08:09;;;;;;;65.03;28.97;;;7.60;99.90;;;;;;5073741;28;20200;-69
2022/11/06 08:10:39;;;;;;;68.70;28.60;;;7.50;99.90;;;;;;5073744;28;20208;-69
2022/11/06 08:13:06;;;;;;;62.17;28.30;;;7.60;99.90;;;;;;5071422;28;20200;-70
2022/11/06 08:15:32;;;;;;;65.73;30.23;;;7.50;99.90;;;;;;5073241;28;20207;-68
2022/11/06 08:17:59;;;;;;;61.40;28.43;;;7.50;99.90;;;;;;5073166;28;20217;-67
2022/11/06 08:20:26;;;;;;;55.97;28.13;;;7.50;99.90;;;;;;5071701;28;20232;-67
2022/11/06 08:22:57;;;;;;;63.23;28.10;;;7.50;99.90;;;;;;5073010;28;20205;-68
2022/11/06 08:25:26;;;;;;;62.73;28.77;;;7.50;99.90;;;;;;5072991;28;20347;-68
2022/11/06 08:27:54;;;;;;;60.80;28.90;;;7.50;99.90;;;;;;5072537;28;20201;-70
2022/11/06 08:30:21;;;;;;;60.93;28.10;;;7.60;99.90;;;;;;5071562;28;20204;-68
2022/11/06 08:32:48;;;;;;;64.33;30.50;;;7.60;99.90;;;;;;5072465;28;20574;-68
2022/11/06 08:35:15;;;;;;;61.80;29.93;;;7.70;99.90;;;;;;5072375;28;20205;-70
2022/11/06 08:37:42;;;;;;;62.17;28.17;;;7.70;99.90;;;;;;5070241;28;20211;-69
2022/11/06 08:40:10;;;;;;;60.00;28.23;;;7.80;99.90;;;;;;5073047;28;20208;-70
2022/11/06 08:42:38;;;;;;;57.53;28.77;;;7.80;99.90;;;;;;5072714;28;20241;-69
2022/11/06 08:45:06;;;;;;;53.47;26.83;;;7.90;99.90;;;;;;5072890;28;20205;-71
2022/11/06 08:47:32;;;;;;;59.80;29.50;;;7.90;99.90;;;;;;5070280;28;20204;-69
2022/11/06 08:49:59;;;;;;;64.80;32.07;;;7.90;99.90;;;;;;5072151;28;20201;-68
2022/11/06 08:52:26;;;;;;;62.13;29.90;;;8.00;99.90;;;;;;5068289;28;20200;-68
2022/11/06 08:54:53;;;;;;;57.77;28.03;;;8.00;99.90;;;;;;5069577;28;20221;-68
2022/11/06 08:57:20;;;;;;;62.50;28.43;;;8.00;99.90;;;;;;5070871;28;20209;-69
2022/11/06 08:59:48;;;;;;;58.10;28.13;;;8.00;99.90;;;;;;5068772;28;20297;-69
2022/11/06 09:02:15;;;;;;;60.03;28.53;;;8.00;99.90;;;;;;5072355;28;20197;-68
2022/11/06 09:04:42;;;;;;;58.33;28.90;;;8.10;99.90;;;;;;5072217;28;20228;-68
2022/11/06 09:07:09;;;;;;;59.17;28.63;;;8.10;99.90;;;;;;5071715;28;20324;-67
2022/11/06 09:09:35;;;;;;;56.63;27.50;;;8.10;99.90;;;;;;5072111;28;20212;-67
2022/11/06 09:12:02;;;;;;;61.33;28.43;;;8.10;99.90;;;;;;5071990;28;20277;-67
2022/11/06 09:14:29;;;;;;;61.27;27.23;;;8.10;99.90;;;;;;5072033;28;20208;-66
2022/11/06 09:16:58;;;;;;;61.30;29.03;;;8.10;99.90;;;;;;5071059;28;20215;-69
2022/11/06 09:19:25;;;;;;;58.77;26.73;;;8.00;99.90;;;;;;5072233;28;20196;-68
2022/11/06 09:21:52;;;;;;;57.53;24.77;;;8.00;99.90;;;;;;5072334;28;20577;-69
2022/11/06 09:24:18;;;;;;;62.10;27.57;;;7.90;99.90;;;;;;5059874;28;20200;-68
2022/11/06 09:26:45;;;;;;;60.03;27.70;;;7.90;99.90;;;;;;5070458;28;20229;-70
2022/11/06 09:29:12;;;;;;;56.47;26.50;;;7.80;99.90;;;;;;5071642;28;20208;-69
2022/11/06 09:31:39;;;;;;;60.10;28.63;;;7.80;99.90;;;;;;5059946;28;20201;-68
2022/11/06 09:34:07;;;;;;;59.80;27.23;;;7.80;99.90;;;;;;5051747;28;20999;-68
2022/11/06 09:36:35;;;;;;;60.70;28.17;;;7.80;99.90;;;;;;5063397;28;20196;-70
2022/11/06 09:39:02;;;;;;;58.97;27.57;;;7.80;99.90;;;;;;5071995;28;20204;-69
2022/11/06 09:41:42;;;;;;;59.27;26.97;;;7.80;99.90;;;;;;5072134;28;20639;-68
2022/11/06 09:44:23;;;;;;;55.57;25.50;;;7.90;99.90;;;;;;5071108;28;20240;-68
2022/11/06 09:46:50;;;;;;;56.83;25.73;;;7.90;99.90;;;;;;5070919;28;20232;-67
2022/11/06 09:49:24;;;;;;;54.57;26.37;;;7.90;99.90;;;;;;5071555;28;20231;-67
2022/11/06 09:51:58;;;;;;;54.13;25.27;;;7.90;99.90;;;;;;5052501;28;20190;-66
2022/11/06 09:54:28;;;;;;;53.03;24.73;;;7.90;99.90;;;;;;5070223;28;20205;-67
2022/11/06 09:57:00;;;;;;;51.10;24.57;;;7.90;99.90;;;;;;5071603;28;20206;-68
2022/11/06 09:59:27;;;;;;;53.07;24.63;;;7.90;99.90;;;;;;5068611;28;20909;-67
2022/11/06 10:01:56;;;;;;;49.93;24.53;;;8.00;99.90;;;;;;5072117;28;20552;-67
2022/11/06 10:04:38;;;;;;;49.20;23.80;;;8.00;99.90;;;;;;5071285;28;20229;-68
2022/11/06 10:07:08;;;;;;;44.90;22.63;;;8.00;99.90;;;;;;5071755;28;20255;-67
2022/11/06 10:09:35;;;;;;;42.33;22.10;;;8.00;99.90;;;;;;5071393;28;20193;-67
2022/11/06 10:12:13;;;;;;;45.33;21.70;;;8.00;99.90;;;;;;5069850;28;20466;-69
2022/11/06 10:14:56;;;;;;;45.13;20.40;;;8.00;99.90;;;;;;5071540;28;20189;-69
2022/11/06 10:17:34;;;;;;;44.03;21.23;;;8.00;99.90;;;;;;5057174;28;20201;-68
2022/11/06 10:20:11;;;;;;;40.37;19.70;;;8.00;99.90;;;;;;5053476;28;20197;-68
2022/11/06 10:22:40;;;;;;;42.13;20.77;;;8.00;99.90;;;;;;5071981;28;20268;-69
2022/11/06 10:25:19;;;;;;;39.77;20.93;;;8.00;99.90;;;;;;5071499;28;20204;-70
2022/11/06 10:28:00;;;;;;;41.00;21.67;;;7.90;99.90;;;;;;5071520;28;20205;-69
2022/11/06 10:30:37;;;;;;;47.00;25.03;;;7.90;99.90;;;;;;5051725;28;20636;-68
2022/11/06 10:33:21;;;;;;;43.20;21.13;;;7.90;99.90;;;;;;5050961;28;20185;-69
2022/11/06 10:35:54;;;;;;;42.00;21.23;;;8.00;99.90;;;;;;5056185;28;20191;-68
2022/11/06 10:38:25;;;;;;;38.80;20.83;;;8.00;99.90;;;;;;5071434;28;20545;-68
2022/11/06 10:40:53;;;;;;;35.67;20.50;;;8.10;99.90;;;;;;5070254;28;20220;-66
2022/11/06 10:43:30;;;;;;;36.93;20.30;;;8.10;99.90;;;;;;5070875;28;20248;-68
2022/11/06 10:46:02;;;;;;;38.50;19.80;;;8.00;99.90;;;;;;5070805;28;20219;-69
2022/11/06 10:48:31;;;;;;;39.33;19.30;;;8.00;99.90;;;;;;5071309;28;20192;-67
2022/11/06 10:51:17;;;;;;;39.17;18.77;;;8.00;99.90;;;;;;5067712;28;20221;-67
2022/11/06 10:53:57;;;;;;;34.43;17.37;;;7.90;99.90;;;;;;5072464;28;20211;-66
2022/11/06 10:56:48;;;;;;;33.97;18.40;;;8.00;99.90;;;;;;5074789;28;20236;-67
2022/11/06 10:59:16;;;;;;;29.97;17.30;;;7.90;99.90;;;;;;5073550;28;20591;-69
2022/11/06 11:01:43;;;;;;;31.30;17.53;;;7.90;99.90;;;;;;5072684;28;20308;-70
2022/11/06 11:04:09;;;;;;;33.17;17.60;;;7.90;99.90;;;;;;5074590;28;20311;-68
2022/11/06 11:06:40;;;;;;;30.17;16.03;;;7.90;99.90;;;;;;5073379;28;20224;-69
2022/11/06 11:09:28;;;;;;;29.90;16.67;;;7.90;99.90;;;;;;5069240;28;20660;-68
2022/11/06 11:11:55;;;;;;;34.83;17.40;;;7.90;99.90;;;;;;5074175;28;20192;-68
2022/11/06 11:14:26;;;;;;;38.97;20.20;;;7.80;99.90;;;;;;5075060;28;20233;-68
2022/11/06 11:16:54;;;;;;;36.10;19.83;;;7.80;99.90;;;;;;5069662;28;20200;-69
2022/11/06 11:19:32;;;;;;;38.73;20.27;;;7.90;99.90;;;;;;5071517;28;20208;-68
2022/11/06 11:22:02;;;;;;;40.37;21.27;;;7.80;99.90;;;;;;5073341;28;20204;-67
2022/11/06 11:24:29;;;;;;;35.17;20.03;;;7.80;99.90;;;;;;5072883;28;20213;-67
2022/11/06 11:26:59;;;;;;;35.80;18.87;;;7.90;99.90;;;;;;5062860;28;20216;-68
2022/11/06 11:29:29;;;;;;;32.77;17.37;;;7.80;99.90;;;;;;5073915;28;20204;-68
2022/11/06 11:31:59;;;;;;;32.70;18.27;;;7.90;99.90;;;;;;5059122;28;20215;-68
2022/11/06 11:34:28;;;;;;;33.77;18.23;;;7.80;99.90;;;;;;5064798;28;21652;-70
2022/11/06 11:36:58;;;;;;;34.20;19.20;;;7.80;99.90;;;;;;5054042;28;20447;-68
2022/11/06 11:39:30;;;;;;;35.00;19.80;;;7.70;99.90;;;;;;5054754;28;20209;-68
2022/11/06 11:42:16;;;;;;;34.23;19.57;;;7.70;99.90;;;;;;5053849;28;20199;-69
2022/11/06 11:44:43;;;;;;;39.97;21.40;;;7.70;99.90;;;;;;5062320;28;20201;-69
2022/11/06 11:47:21;;;;;;;43.70;21.33;;;7.70;99.90;;;;;;5070836;28;20224;-68
2022/11/06 11:49:48;;;;;;;39.27;19.70;;;7.70;99.90;;;;;;5073584;28;20250;-70
2022/11/06 11:52:20;;;;;;;38.17;20.43;;;7.70;99.90;;;;;;5073854;28;20201;-70
2022/11/06 11:54:52;;;;;;;39.87;20.90;;;7.70;99.90;;;;;;5061161;28;20197;-68
2022/11/06 11:57:21;;;;;;;37.70;20.27;;;7.70;99.90;;;;;;5058384;28;20185;-69
2022/11/06 11:59:51;;;;;;;35.87;20.83;;;7.60;99.90;;;;;;5064168;28;20562;-69
2022/11/06 12:02:22;;;;;;;37.07;20.47;;;7.60;99.90;;;;;;5063856;28;20211;-68
2022/11/06 12:04:53;;;;;;;40.70;20.37;;;7.60;99.90;;;;;;5060384;28;20201;-68
2022/11/06 12:07:25;;;;;;;38.30;20.63;;;7.60;99.90;;;;;;5063620;28;20216;-69
2022/11/06 12:09:53;;;;;;;37.40;20.97;;;7.60;99.90;;;;;;5062691;28;20357;-69
2022/11/06 12:12:22;;;;;;;36.37;20.77;;;7.60;99.90;;;;;;5061450;28;20207;-68
2022/11/06 12:15:04;;;;;;;39.20;20.77;;;7.60;99.90;;;;;;5061870;28;20223;-68
2022/11/06 12:17:33;;;;;;;39.50;20.43;;;7.60;99.90;;;;;;5069051;28;20201;-69
2022/11/06 12:20:02;;;;;;;40.93;23.03;;;7.60;99.90;;;;;;5072503;28;20205;-68
2022/11/06 12:22:36;;;;;;;49.23;24.03;;;7.60;99.90;;;;;;5072426;28;20292;-68
2022/11/06 12:25:11;;;;;;;43.93;23.87;;;7.60;99.90;;;;;;5072753;28;20189;-68
2022/11/06 12:27:42;;;;;;;46.77;23.97;;;7.60;99.90;;;;;;5073284;28;20259;-72
2022/11/06 12:30:12;;;;;;;46.70;23.83;;;7.60;99.90;;;;;;5073339;28;20214;-70
2022/11/06 12:32:48;;;;;;;50.07;26.10;;;7.60;99.90;;;;;;5073396;28;20200;-70
2022/11/06 12:35:22;;;;;;;45.87;24.00;;;7.50;99.90;;;;;;5073039;28;20662;-69
2022/11/06 12:38:00;;;;;;;55.53;26.13;;;7.50;99.90;;;;;;5073144;28;20204;-69
2022/11/06 12:40:31;;;;;;;54.17;25.70;;;7.50;99.90;;;;;;5072839;28;20203;-70
2022/11/06 12:43:11;;;;;;;49.97;25.00;;;7.50;99.90;;;;;;5071623;28;20585;-68
2022/11/06 12:45:57;;;;;;;52.00;24.93;;;7.50;99.90;;;;;;5073049;28;20541;-68
2022/11/06 12:48:43;;;;;;;52.03;26.43;;;7.50;99.90;;;;;;5072936;28;20215;-69
2022/11/06 12:51:21;;;;;;;46.80;24.83;;;7.60;99.90;;;;;;5067707;28;20204;-69
2022/11/06 12:53:59;;;;;;;55.43;27.73;;;7.60;99.90;;;;;;5072634;28;20189;-70
2022/11/06 12:56:37;;;;;;;53.00;27.83;;;7.60;99.90;;;;;;5066690;28;20217;-69
2022/11/06 12:59:14;;;;;;;60.27;28.40;;;7.60;99.90;;;;;;5052859;28;20204;-70
2022/11/06 13:01:52;;;;;;;57.60;27.80;;;7.60;99.90;;;;;;5072072;28;20204;-69
2022/11/06 13:04:36;;;;;;;51.90;25.27;;;7.50;99.90;;;;;;5068604;28;20193;-68